createdAt,value
2019-03-21T00:01:27.204Z,80.51
2019-03-21T00:04:01.311Z,80.59
2019-03-21T00:06:31.913Z,80.44
2019-03-21T00:09:02.448Z,80.55
2019-03-21T00:12:02.602Z,80.45
2019-03-21T00:14:56.179Z,80.57
2019-03-21T00:17:29.507Z,80.60
2019-03-21T00:19:59.995Z,80.48
2019-03-21T00:22:30.498Z,80.35
2019-03-21T00:25:00.937Z,80.34
2019-03-21T00:27:31.787Z,80.32
2019-03-21T00:30:02.285Z,80.38
2019-03-21T00:32:32.754Z,80.44
2019-03-21T00:35:03.212Z,80.46
2019-03-21T00:37:33.731Z,80.70
2019-03-21T00:40:04.493Z,80.62
2019-03-21T00:42:34.942Z,80.36
2019-03-21T00:45:06.175Z,80.27
2019-03-21T00:47:36.780Z,80.18
2019-03-21T00:50:08.364Z,80.00
2019-03-21T00:52:38.861Z,79.90
2019-03-21T00:55:10.555Z,79.90
2019-03-21T00:57:41.037Z,79.93
2019-03-21T01:00:16.144Z,80.02
2019-03-21T01:02:46.617Z,79.97
2019-03-21T01:16:41.885Z,79.60
2019-03-21T01:19:12.353Z,79.51
2019-03-21T01:21:43.326Z,79.58
2019-03-21T01:24:13.755Z,79.98
2019-03-21T01:26:44.414Z,80.04
2019-03-21T01:29:15.144Z,79.99
2019-03-21T01:31:45.627Z,80.07
2019-03-21T01:34:16.369Z,80.09
2019-03-21T01:36:47.244Z,80.23
2019-03-21T01:39:17.794Z,80.30
2019-03-21T01:41:48.364Z,80.25
2019-03-21T01:44:18.828Z,80.24
2019-03-21T01:46:49.294Z,80.40
2019-03-21T01:49:19.751Z,80.38
2019-03-21T01:51:50.209Z,80.12
2019-03-21T01:54:20.723Z,80.12
2019-03-21T01:56:51.490Z,80.17
2019-03-21T01:59:21.837Z,80.10
2019-03-21T02:01:52.333Z,80.24
2019-03-21T02:04:22.860Z,80.37
2019-03-21T02:06:53.478Z,80.35
2019-03-21T02:09:23.975Z,80.57
2019-03-21T02:11:54.381Z,80.56
2019-03-21T02:14:24.861Z,80.38
2019-03-21T02:16:55.348Z,80.30
2019-03-21T02:19:25.841Z,80.55
2019-03-21T02:21:56.236Z,80.78
2019-03-21T02:24:26.681Z,80.46
2019-03-21T02:26:58.271Z,80.36
2019-03-21T02:29:30.011Z,80.28
2019-03-21T02:32:00.425Z,80.38
2019-03-21T02:34:30.831Z,80.55
2019-03-21T02:37:01.353Z,80.87
2019-03-21T02:39:32.172Z,81.00
2019-03-21T02:42:03.040Z,81.00
2019-03-21T02:44:33.625Z,80.84
2019-03-21T02:47:04.290Z,80.74
2019-03-21T02:49:34.689Z,80.65
2019-03-21T02:52:05.447Z,80.57
2019-03-21T02:54:35.882Z,80.60
2019-03-21T02:57:06.349Z,80.56
2019-03-21T02:59:36.871Z,80.54
2019-03-21T03:02:07.377Z,80.38
2019-03-21T03:04:37.911Z,80.31
2019-03-21T03:07:09.027Z,80.34
2019-03-21T03:09:39.672Z,80.45
2019-03-21T03:12:10.166Z,80.45
2019-03-21T03:14:40.613Z,80.55
2019-03-21T03:17:11.146Z,80.64
2019-03-21T03:19:41.758Z,80.62
2019-03-21T03:22:13.298Z,80.59
2019-03-21T03:24:44.184Z,80.35
2019-03-21T03:27:14.748Z,80.12
2019-03-21T03:29:45.142Z,80.38
2019-03-21T03:32:15.995Z,80.56
2019-03-21T03:34:46.952Z,80.49
2019-03-21T03:37:18.616Z,80.28
2019-03-21T03:39:49.547Z,80.32
2019-03-21T03:42:20.159Z,80.47
2019-03-21T03:44:50.613Z,80.80
2019-03-21T03:47:21.491Z,80.81
2019-03-21T03:49:51.984Z,80.86
2019-03-21T03:52:22.386Z,80.88
2019-03-21T03:54:53.307Z,80.95
2019-03-21T03:57:24.333Z,80.64
2019-03-21T03:59:54.825Z,80.49
2019-03-21T04:02:25.316Z,80.21
2019-03-21T04:04:55.814Z,80.10
2019-03-21T04:07:26.326Z,80.48
2019-03-21T04:09:56.875Z,80.44
2019-03-21T04:12:27.557Z,80.44
2019-03-21T04:14:58.025Z,80.60
2019-03-21T04:17:28.433Z,80.73
2019-03-21T04:19:58.939Z,80.98
2019-03-21T04:22:29.359Z,81.25
2019-03-21T04:24:59.938Z,81.33
2019-03-21T04:27:30.699Z,81.36
2019-03-21T04:30:01.498Z,81.60
2019-03-21T04:32:33.198Z,81.74
2019-03-21T04:35:03.899Z,81.72
2019-03-21T04:37:35.062Z,81.82
2019-03-21T04:40:05.945Z,81.93
2019-03-21T04:42:36.257Z,82.16
2019-03-21T04:45:09.758Z,82.27
2019-03-21T04:47:40.198Z,82.43
2019-03-21T04:50:13.336Z,82.43
2019-03-21T04:52:43.739Z,82.41
2019-03-21T04:55:14.839Z,82.30
2019-03-21T04:57:45.349Z,82.18
2019-03-21T05:00:21.428Z,81.75
2019-03-21T05:02:53.158Z,81.55
2019-03-21T05:05:24.920Z,81.38
2019-03-21T05:07:57.399Z,81.23
2019-03-21T05:10:27.849Z,81.16
2019-03-21T05:12:58.342Z,81.00
2019-03-21T05:15:31.359Z,80.99
2019-03-21T05:18:05.373Z,80.86
2019-03-21T05:20:35.802Z,81.15
2019-03-21T05:23:06.273Z,81.34
2019-03-21T05:25:36.762Z,81.28
2019-03-21T05:28:07.306Z,81.20
2019-03-21T05:30:41.398Z,81.38
2019-03-21T05:33:11.890Z,81.46
2019-03-21T05:35:43.469Z,81.39
2019-03-21T05:38:15.545Z,81.33
2019-03-21T05:40:46.527Z,81.26
2019-03-21T05:43:21.914Z,80.91
2019-03-21T05:45:52.537Z,80.84
2019-03-21T05:48:23.018Z,80.99
2019-03-21T05:50:53.506Z,81.03
2019-03-21T05:53:24.239Z,80.75
2019-03-21T05:55:54.809Z,80.62
2019-03-21T05:58:25.308Z,80.74
2019-03-21T06:00:56.029Z,80.88
2019-03-21T06:03:29.828Z,80.98
2019-03-21T06:06:13.040Z,81.05
2019-03-21T06:08:43.615Z,81.27
2019-03-21T06:11:14.110Z,81.20
2019-03-21T06:13:44.854Z,81.30
2019-03-21T06:16:15.355Z,81.50
2019-03-21T06:18:59.786Z,81.48
2019-03-21T06:21:50.841Z,81.49
2019-03-21T06:25:10.299Z,81.53
2019-03-21T06:27:40.695Z,81.65
2019-03-21T06:30:12.016Z,81.54
2019-03-21T06:32:42.827Z,81.75
2019-03-21T06:35:23.261Z,82.04
2019-03-21T06:37:54.427Z,82.04
2019-03-21T06:40:24.900Z,81.93
2019-03-21T06:42:55.463Z,81.94
2019-03-21T06:45:26.267Z,82.10
2019-03-21T06:47:56.734Z,82.29
2019-03-21T06:50:27.356Z,82.44
2019-03-21T06:52:57.834Z,82.44
2019-03-21T06:55:29.021Z,82.44
2019-03-21T06:57:59.547Z,82.37
2019-03-21T07:00:29.941Z,82.27
2019-03-21T07:03:01.447Z,82.33
2019-03-21T07:05:31.973Z,82.09
2019-03-21T07:08:02.375Z,81.99
2019-03-21T07:10:32.803Z,81.93
2019-03-21T07:13:03.353Z,81.95
2019-03-21T07:15:33.846Z,81.70
2019-03-21T07:18:04.325Z,81.18
2019-03-21T07:20:35.206Z,81.28
2019-03-21T07:23:06.906Z,81.39
2019-03-21T07:25:37.405Z,81.44
2019-03-21T07:28:07.883Z,81.30
2019-03-21T07:30:38.298Z,81.34
2019-03-21T07:33:08.756Z,81.48
2019-03-21T07:35:39.157Z,81.29
2019-03-21T07:38:09.603Z,81.15
2019-03-21T07:40:40.339Z,81.02
2019-03-21T07:43:10.901Z,80.89
2019-03-21T07:45:42.099Z,81.17
2019-03-21T07:48:12.682Z,81.22
2019-03-21T07:50:44.428Z,81.16
2019-03-21T07:53:14.810Z,81.21
2019-03-21T07:55:45.315Z,80.63
2019-03-21T07:58:15.849Z,80.19
2019-03-21T08:00:46.721Z,79.50
2019-03-21T08:03:17.279Z,79.04
2019-03-21T08:05:47.816Z,78.73
2019-03-21T08:08:18.321Z,78.41
2019-03-21T08:10:49.126Z,77.77
2019-03-21T08:13:19.712Z,77.47
2019-03-21T08:15:50.254Z,76.89
2019-03-21T08:18:21.021Z,76.42
2019-03-21T08:20:57.275Z,75.93
2019-03-21T08:23:24.285Z,75.72
2019-03-21T08:25:54.868Z,75.55
2019-03-21T08:28:44.197Z,75.65
2019-03-21T08:33:52.041Z,74.91
2019-03-21T08:36:23.086Z,74.89
2019-03-21T08:38:53.682Z,75.32
2019-03-21T08:41:24.680Z,75.18
2019-03-21T08:43:55.488Z,74.42
2019-03-21T08:46:25.983Z,74.22
2019-03-21T08:48:56.825Z,74.23
2019-03-21T08:51:27.486Z,73.92
2019-03-21T08:53:58.304Z,73.50
2019-03-21T08:56:28.951Z,73.13
2019-03-21T08:58:59.536Z,72.84
2019-03-21T09:01:30.045Z,72.55
2019-03-21T09:04:00.853Z,72.41
2019-03-21T09:06:31.284Z,71.96
2019-03-21T09:09:01.729Z,71.85
2019-03-21T09:11:33.787Z,71.31
2019-03-21T09:14:05.425Z,71.02
2019-03-21T09:16:35.894Z,71.17
2019-03-21T09:19:06.364Z,71.08
2019-03-21T09:21:37.266Z,70.84
2019-03-21T09:24:07.765Z,70.55
2019-03-21T09:26:38.638Z,70.23
2019-03-21T09:29:09.161Z,70.14
2019-03-21T09:31:39.683Z,69.97
2019-03-21T09:34:10.289Z,69.83
2019-03-21T09:36:41.101Z,69.74
2019-03-21T09:39:11.623Z,69.62
2019-03-21T09:41:42.216Z,69.92
2019-03-21T09:44:13.074Z,69.10
2019-03-21T09:46:50.820Z,68.85
2019-03-21T09:49:16.098Z,68.54
2019-03-21T09:51:46.662Z,67.91
2019-03-21T09:54:17.151Z,68.09
2019-03-21T09:56:47.999Z,68.53
2019-03-21T09:59:18.524Z,67.94
2019-03-21T10:01:49.011Z,66.93
2019-03-21T10:04:20.321Z,66.47
2019-03-21T10:06:50.905Z,65.98
2019-03-21T10:09:21.237Z,65.95
2019-03-21T10:11:51.803Z,65.89
2019-03-21T10:14:22.550Z,67.20
2019-03-21T10:16:53.153Z,65.67
2019-03-21T10:19:23.988Z,64.65
2019-03-21T10:21:54.781Z,65.45
2019-03-21T10:24:25.566Z,64.94
2019-03-21T10:26:56.110Z,63.97
2019-03-21T10:29:26.911Z,63.17
2019-03-21T10:31:57.452Z,61.53
2019-03-21T10:34:28.125Z,61.28
2019-03-21T10:37:00.132Z,59.99
2019-03-21T10:39:30.894Z,60.44
2019-03-21T10:42:01.418Z,58.29
2019-03-21T10:44:32.241Z,56.87
2019-03-21T10:47:02.992Z,58.37
2019-03-21T10:49:33.924Z,58.00
2019-03-21T10:52:04.921Z,56.03
2019-03-21T10:54:35.404Z,55.47
2019-03-21T10:57:05.935Z,55.34
2019-03-21T10:59:36.767Z,54.79
2019-03-21T11:02:07.769Z,54.93
2019-03-21T11:04:38.319Z,54.74
2019-03-21T11:07:06.606Z,55.07
2019-03-21T11:09:37.020Z,55.67
2019-03-21T11:12:07.644Z,55.25
2019-03-21T11:14:39.865Z,54.87
2019-03-21T11:17:10.341Z,52.90
2019-03-21T11:19:40.816Z,54.38
2019-03-21T11:22:11.324Z,52.82
2019-03-21T11:24:41.808Z,51.06
2019-03-21T11:27:13.383Z,50.92
2019-03-21T11:29:44.122Z,50.39
2019-03-21T11:32:14.557Z,49.75
2019-03-21T11:34:45.427Z,50.45
2019-03-21T11:37:16.947Z,50.01
2019-03-21T11:39:47.678Z,50.79
2019-03-21T11:42:18.497Z,48.64
2019-03-21T11:44:49.178Z,49.84
2019-03-21T11:47:20.167Z,47.83
2019-03-21T11:49:50.682Z,48.74
2019-03-21T11:52:21.280Z,46.91
2019-03-21T11:54:51.975Z,47.33
2019-03-21T11:57:22.449Z,47.22
2019-03-21T11:59:52.950Z,46.42
2019-03-21T12:02:27.473Z,46.82
2019-03-21T12:04:55.682Z,46.26
2019-03-21T12:07:26.443Z,46.61
2019-03-21T12:09:56.850Z,46.76
2019-03-21T12:12:27.714Z,45.50
2019-03-21T12:14:59.166Z,44.74
2019-03-21T12:17:29.611Z,44.03
2019-03-21T12:20:00.451Z,44.71
2019-03-21T12:22:31.486Z,44.32
2019-03-21T12:25:01.914Z,44.14
2019-03-21T12:27:33.217Z,43.70
2019-03-21T12:30:04.313Z,42.77
2019-03-21T12:32:35.143Z,42.58
2019-03-21T12:35:06.668Z,43.19
2019-03-21T12:37:37.278Z,43.77
2019-03-21T12:40:09.386Z,43.96
2019-03-21T12:42:44.215Z,43.33
2019-03-21T12:45:20.074Z,41.17
2019-03-21T12:47:54.849Z,41.11
2019-03-21T12:50:29.208Z,40.95
2019-03-21T12:53:01.576Z,41.14
2019-03-21T12:55:32.817Z,40.45
2019-03-21T12:58:03.251Z,39.90
2019-03-21T13:00:38.591Z,40.77
2019-03-21T13:03:09.225Z,39.21
2019-03-21T13:05:39.793Z,38.00
2019-03-21T13:08:10.319Z,37.34
2019-03-21T13:10:41.106Z,36.76
2019-03-21T13:13:11.717Z,38.50
2019-03-21T13:15:42.417Z,37.15
2019-03-21T13:18:12.919Z,36.79
2019-03-21T13:20:43.399Z,37.39
2019-03-21T13:23:14.397Z,37.09
2019-03-21T13:25:46.230Z,38.06
2019-03-21T13:28:16.668Z,37.34
2019-03-21T13:30:47.077Z,36.87
2019-03-21T13:33:17.809Z,37.48
2019-03-21T13:35:48.401Z,35.26
2019-03-21T13:38:18.902Z,36.15
2019-03-21T13:40:49.348Z,36.26
2019-03-21T13:43:19.800Z,36.15
2019-03-21T13:45:50.249Z,34.79
2019-03-21T13:48:20.691Z,34.13
2019-03-21T13:50:51.672Z,33.67
2019-03-21T13:53:22.632Z,33.60
2019-03-21T13:55:53.474Z,33.91
2019-03-21T13:58:24.022Z,33.37
2019-03-21T14:00:54.525Z,33.20
2019-03-21T14:03:25.568Z,32.90
2019-03-21T14:05:57.551Z,32.65
2019-03-21T14:08:28.480Z,32.67
2019-03-21T14:10:58.956Z,33.11
2019-03-21T14:13:29.518Z,33.54
2019-03-21T14:15:59.947Z,32.18
2019-03-21T14:18:30.362Z,33.56
2019-03-21T14:21:00.861Z,33.82
2019-03-21T14:23:42.455Z,33.89
2019-03-21T14:26:03.604Z,33.65
2019-03-21T14:28:34.185Z,33.63
2019-03-21T14:31:04.857Z,34.91
2019-03-21T14:33:35.443Z,36.73
2019-03-21T14:36:06.278Z,36.80
2019-03-21T14:38:37.074Z,36.80
2019-03-21T14:41:07.674Z,37.24
2019-03-21T14:43:38.659Z,38.50
2019-03-21T14:46:09.121Z,39.23
2019-03-21T14:48:39.654Z,38.51
2019-03-21T14:51:10.219Z,38.09
2019-03-21T14:53:40.730Z,38.13
2019-03-21T14:56:11.143Z,38.99
2019-03-21T14:58:42.837Z,38.18
2019-03-21T15:01:13.324Z,38.01
2019-03-21T15:03:44.323Z,38.63
2019-03-21T15:06:14.909Z,38.81
2019-03-21T15:08:46.535Z,37.93
2019-03-21T15:11:17.665Z,38.97
2019-03-21T15:13:48.378Z,38.55
2019-03-21T15:16:18.785Z,39.51
2019-03-21T15:18:49.647Z,39.80
2019-03-21T15:21:20.229Z,39.95
2019-03-21T15:23:59.314Z,39.62
2019-03-21T15:26:23.275Z,39.35
2019-03-21T15:28:53.861Z,40.41
2019-03-21T15:31:24.407Z,40.38
2019-03-21T15:33:55.078Z,40.38
2019-03-21T15:36:25.626Z,38.98
2019-03-21T15:38:56.251Z,39.04
2019-03-21T15:41:26.795Z,39.40
2019-03-21T15:44:00.460Z,39.40
2019-03-21T15:46:32.451Z,40.67
2019-03-21T15:49:03.367Z,40.67
2019-03-21T15:51:34.030Z,40.26
2019-03-21T15:54:27.148Z,40.26
2019-03-21T15:56:57.732Z,40.21
2019-03-21T15:59:29.679Z,40.21
2019-03-21T16:02:00.491Z,40.21
2019-03-21T16:04:36.367Z,40.33
2019-03-21T16:07:07.888Z,40.04
2019-03-21T16:09:45.091Z,40.13
2019-03-21T16:12:23.281Z,40.49
2019-03-21T16:14:58.571Z,40.21
2019-03-21T16:17:31.337Z,40.21
2019-03-21T16:20:25.447Z,40.78
2019-03-21T16:23:03.759Z,40.78
2019-03-21T16:25:42.688Z,42.90
2019-03-21T16:28:25.378Z,43.54
2019-03-21T16:31:04.514Z,43.20
2019-03-21T16:33:43.115Z,42.66
2019-03-21T16:39:08.805Z,42.10
2019-03-21T16:41:54.043Z,42.89
2019-03-21T16:44:48.862Z,42.93
2019-03-21T16:47:25.721Z,43.08
2019-03-21T16:50:04.152Z,43.95
2019-03-21T16:52:42.346Z,44.41
2019-03-21T16:55:24.142Z,44.67
2019-03-21T16:58:03.039Z,45.44
2019-03-21T17:01:06.336Z,46.16
2019-03-21T17:03:42.171Z,47.46
2019-03-21T17:06:15.322Z,47.76
2019-03-21T17:08:54.947Z,48.03
2019-03-21T17:11:26.912Z,47.78
2019-03-21T17:14:04.522Z,48.71
2019-03-21T17:16:39.026Z,49.43
2019-03-21T17:19:16.345Z,50.44
2019-03-21T17:21:51.968Z,51.05
2019-03-21T17:24:38.997Z,51.76
2019-03-21T17:27:36.022Z,52.54
2019-03-21T17:30:15.672Z,53.17
2019-03-21T17:32:51.344Z,53.70
2019-03-21T17:35:23.280Z,54.09
2019-03-21T17:38:02.652Z,54.55
2019-03-21T17:46:21.071Z,56.07
2019-03-21T17:49:03.648Z,56.24
2019-03-21T17:51:55.478Z,56.61
2019-03-21T17:54:40.907Z,56.98
2019-03-21T17:57:19.635Z,57.31
2019-03-21T18:00:15.643Z,57.75
2019-03-21T18:02:50.328Z,57.63
2019-03-21T18:05:26.549Z,57.93
2019-03-21T18:07:57.053Z,58.20
2019-03-21T18:10:36.539Z,58.46
2019-03-21T18:13:07.188Z,58.47
2019-03-21T18:15:37.752Z,58.94
2019-03-21T18:18:08.275Z,59.39
2019-03-21T18:20:38.985Z,59.72
2019-03-21T18:23:09.506Z,59.90
2019-03-21T18:25:40.041Z,60.15
2019-03-21T18:28:10.637Z,60.37
2019-03-21T18:30:41.363Z,60.83
2019-03-21T18:33:11.845Z,60.87
2019-03-21T18:35:42.469Z,61.05
2019-03-21T18:38:13.087Z,61.97
2019-03-21T18:40:43.668Z,61.69
2019-03-21T18:43:14.672Z,61.98
2019-03-21T18:45:45.342Z,61.85
2019-03-21T18:48:16.124Z,62.13
2019-03-21T18:50:46.554Z,62.32
2019-03-21T18:53:17.048Z,62.78
2019-03-21T18:55:47.635Z,62.90
2019-03-21T18:58:18.169Z,63.15
2019-03-21T19:00:49.200Z,63.51
2019-03-21T19:03:20.995Z,63.78
2019-03-21T19:05:52.000Z,64.09
2019-03-21T19:08:22.362Z,63.72
2019-03-21T19:10:53.172Z,64.13
2019-03-21T19:13:23.713Z,64.66
2019-03-21T19:15:54.260Z,65.08
2019-03-21T19:18:24.775Z,65.43
2019-03-21T19:20:55.657Z,65.52
2019-03-21T19:23:26.284Z,65.64
2019-03-21T19:25:56.814Z,65.84
2019-03-21T19:28:27.322Z,66.21
2019-03-21T19:30:58.946Z,66.35
2019-03-21T19:33:29.451Z,66.53
2019-03-21T19:35:59.959Z,66.80
2019-03-21T19:38:30.560Z,66.83
2019-03-21T19:41:01.413Z,67.08
2019-03-21T19:43:32.042Z,67.52
2019-03-21T19:46:02.519Z,67.83
2019-03-21T19:48:34.922Z,67.86
2019-03-21T19:51:05.896Z,67.91
2019-03-21T19:53:36.895Z,67.87
2019-03-21T19:56:08.967Z,67.55
2019-03-21T19:58:39.979Z,67.51
2019-03-21T20:01:10.499Z,67.74
2019-03-21T20:03:41.617Z,68.33
2019-03-21T20:06:13.371Z,68.33
2019-03-21T20:08:44.036Z,68.41
2019-03-21T20:11:15.439Z,68.82
2019-03-21T20:13:46.164Z,69.06
2019-03-21T20:16:16.671Z,69.19
2019-03-21T20:18:47.545Z,69.15
2019-03-21T20:21:18.085Z,69.44
2019-03-21T20:23:49.479Z,69.63
2019-03-21T20:26:21.556Z,69.96
2019-03-21T20:28:52.530Z,70.28
2019-03-21T20:31:23.095Z,70.01
2019-03-21T20:33:53.598Z,70.43
2019-03-21T20:36:24.034Z,70.32
2019-03-21T20:38:54.567Z,70.51
2019-03-21T20:41:25.127Z,70.70
2019-03-21T20:43:56.633Z,70.95
2019-03-21T20:46:27.932Z,71.13
2019-03-21T20:48:56.523Z,71.25
2019-03-21T20:51:26.983Z,71.62
2019-03-21T20:53:57.447Z,71.76
2019-03-21T20:56:27.975Z,71.87
2019-03-21T20:58:58.794Z,71.94
2019-03-21T21:01:29.638Z,72.07
2019-03-21T21:04:00.356Z,72.18
2019-03-21T21:06:31.759Z,72.33
2019-03-21T21:09:03.443Z,72.15
2019-03-21T21:11:35.203Z,72.42
2019-03-21T21:14:07.138Z,72.79
2019-03-21T21:16:37.617Z,72.80
2019-03-21T21:19:08.400Z,72.27
2019-03-21T21:21:39.833Z,72.34
2019-03-21T21:24:10.592Z,72.82
2019-03-21T21:26:41.738Z,73.13
2019-03-21T21:29:12.129Z,73.25
2019-03-21T21:31:42.776Z,73.38
2019-03-21T21:34:13.657Z,73.48
2019-03-21T21:36:45.160Z,73.73
2019-03-21T21:39:18.874Z,73.86
2019-03-21T21:41:49.847Z,73.98
2019-03-21T21:44:20.337Z,74.32
2019-03-21T21:46:50.761Z,74.59
2019-03-21T21:49:21.507Z,74.39
2019-03-21T21:51:52.025Z,74.37
2019-03-21T21:54:22.663Z,74.30
2019-03-21T21:56:53.280Z,74.44
2019-03-21T21:59:24.196Z,74.53
2019-03-21T22:01:54.600Z,74.42
2019-03-21T22:04:25.068Z,73.97
2019-03-21T22:06:55.852Z,73.86
2019-03-21T22:09:26.347Z,73.89
2019-03-21T22:12:00.362Z,73.75
2019-03-21T22:14:31.247Z,74.11
2019-03-21T22:17:02.051Z,74.31
2019-03-21T22:19:32.584Z,74.46
2019-03-21T22:22:04.527Z,74.37
2019-03-21T22:24:34.991Z,74.38
2019-03-21T22:27:05.479Z,74.62
2019-03-21T22:29:35.920Z,74.69
2019-03-21T22:32:06.616Z,74.87
2019-03-21T22:34:37.266Z,74.93
2019-03-21T22:37:07.777Z,75.08
2019-03-21T22:39:38.535Z,75.11
2019-03-21T22:42:09.008Z,75.02
2019-03-21T22:44:39.510Z,74.90
2019-03-21T22:47:10.322Z,75.26
2019-03-21T22:49:40.812Z,75.28
2019-03-21T22:52:11.219Z,75.21
2019-03-21T22:54:41.757Z,75.28
2019-03-21T22:57:12.277Z,75.41
2019-03-21T22:59:42.742Z,75.33
2019-03-21T23:02:13.456Z,75.20
2019-03-21T23:04:43.961Z,75.07
2019-03-21T23:07:14.755Z,75.07
2019-03-21T23:09:45.503Z,75.38
2019-03-21T23:12:15.913Z,75.34
2019-03-21T23:14:46.685Z,75.29
2019-03-21T23:17:17.086Z,75.30
2019-03-21T23:19:48.047Z,75.25
2019-03-21T23:22:19.099Z,75.49
2019-03-21T23:24:50.524Z,75.55
2019-03-21T23:27:21.107Z,75.33
2019-03-21T23:29:51.728Z,75.04
2019-03-21T23:32:22.376Z,75.31
2019-03-21T23:34:53.440Z,75.52
2019-03-21T23:37:24.245Z,75.33
2019-03-21T23:39:54.696Z,75.28
2019-03-21T23:42:25.211Z,75.30
2019-03-21T23:44:56.697Z,75.36
2019-03-21T23:47:27.154Z,75.52
2019-03-21T23:49:57.643Z,75.58
2019-03-21T23:52:28.250Z,75.79
2019-03-21T23:54:58.658Z,75.97
2019-03-21T23:57:29.053Z,76.00
2019-03-21T23:59:59.615Z,75.94
